Temp: 0.4°C   Baro: 1011.4mb
  Wind: 0.0mph   Dir: N (352°)
  Rain: 0.0mm (0.0mm/hr)
  Solar: 0W/m2  Hum: 85%

Historic data

Bath Spa Weather Station Historical Data
Daily Summary for October 23, 2021 Units:  Metric    English   Both
Daily Weekly Monthly Yearly Custom
  High: Low: Average:
Temperature: 13.1 °C 9.3 °C 10.9 °C
Dew Point: 9.1 °C 7.1 °C 7.9 °C
Humidity: 87% 69.2% 79%
Wind Speed: 13.2km/h 0km/h 4.2km/h
Wind Gust: 25.7km/h - -
Wind- - SSW
Pressure: 1026 hPa 1021.2 hPa -
Precipitation: 0 mm    
Historical Graphs
 
 
Tabular Data for October 23, 2021
Time Temperature Dew Point Pressure Wind Wind Speed Wind Gust Humidity Rainfall Rate (Hourly) solar
00:04 9.7 °C 8.1 °C 1026 hPa WNW 1.3 km/h 3.2 km/h 87% 0 mm 0 W/m2
00:09 9.7 °C 8.1 °C 1026 hPa WNW 3.2 km/h 4.8 km/h 87% 0 mm 0 W/m2
00:14 9.7 °C 8.1 °C 1026 hPa WNW 3.4 km/h 6.4 km/h 87% 0 mm 0 W/m2
00:19 9.7 °C 8.1 °C 1026 hPa WNW 2.9 km/h 6.4 km/h 87% 0 mm 0 W/m2
00:24 9.8 °C 8.2 °C 1026 hPa WNW 3.9 km/h 6.4 km/h 87% 0 mm 0 W/m2
00:29 9.8 °C 8.1 °C 1026 hPa WNW 2.3 km/h 4.8 km/h 86.4% 0 mm 0 W/m2
00:34 9.8 °C 8.1 °C 1026 hPa WNW 0.3 km/h 4.8 km/h 86% 0 mm 0 W/m2
00:39 9.7 °C 8 °C 1026 hPa WNW 4 km/h 8 km/h 86% 0 mm 0 W/m2
00:44 9.7 °C 8 °C 1026 hPa WNW 1.9 km/h 6.4 km/h 86% 0 mm 0 W/m2
00:49 9.7 °C 8 °C 1026 hPa WNW 2.3 km/h 4.8 km/h 86% 0 mm 0 W/m2
00:54 9.7 °C 8 °C 1026 hPa WNW 2.1 km/h 4.8 km/h 86% 0 mm 0 W/m2
00:59 9.7 °C 8 °C 1026 hPa WNW 1.9 km/h 4.8 km/h 86% 0 mm 0 W/m2
01:04 9.7 °C 8 °C 1026 hPa WNW 3.1 km/h 4.8 km/h 86% 0 mm 0 W/m2
01:09 9.7 °C 8 °C 1026 hPa WNW 2.1 km/h 4.8 km/h 86% 0 mm 0 W/m2
01:14 9.7 °C 8 °C 1025.6 hPa WNW 1.6 km/h 4.8 km/h 86% 0 mm 0 W/m2
01:19 9.7 °C 8 °C 1025.6 hPa WNW 1.3 km/h 4.8 km/h 86% 0 mm 0 W/m2
01:24 9.7 °C 8 °C 1025.6 hPa WNW 2.6 km/h 4.8 km/h 86% 0 mm 0 W/m2
01:29 9.7 °C 8 °C 1025.6 hPa WNW 3.2 km/h 6.4 km/h 86% 0 mm 0 W/m2
01:34 9.7 °C 8 °C 1025.6 hPa WNW 2.1 km/h 6.4 km/h 86% 0 mm 0 W/m2
01:39 9.7 °C 8 °C 1026 hPa WNW 2.9 km/h 4.8 km/h 86% 0 mm 0 W/m2
01:44 9.7 °C 7.9 °C 1026 hPa WNW 3.2 km/h 4.8 km/h 86% 0 mm 0 W/m2
01:49 9.6 °C 7.9 °C 1026 hPa WNW 3.2 km/h 4.8 km/h 86% 0 mm 0 W/m2
01:54 9.6 °C 7.9 °C 1026 hPa WNW 2.1 km/h 4.8 km/h 86% 0 mm 0 W/m2
01:59 9.6 °C 7.9 °C 1026 hPa WNW 0.8 km/h 3.2 km/h 86% 0 mm 0 W/m2
02:04 9.7 °C 7.9 °C 1026 hPa WNW 1.6 km/h 3.2 km/h 86% 0 mm 0 W/m2
02:09 9.7 °C 7.9 °C 1026 hPa WNW 2.6 km/h 4.8 km/h 86% 0 mm 0 W/m2
02:14 9.6 °C 7.9 °C 1025.6 hPa WNW 2.1 km/h 4.8 km/h 86% 0 mm 0 W/m2
02:19 9.6 °C 7.9 °C 1026 hPa WNW 1.9 km/h 3.2 km/h 86% 0 mm 0 W/m2
02:24 9.6 °C 7.9 °C 1026 hPa WNW 2.6 km/h 4.8 km/h 86% 0 mm 0 W/m2
02:29 9.5 °C 7.8 °C 1026 hPa WNW 3.5 km/h 4.8 km/h 86% 0 mm 0 W/m2
02:34 9.4 °C 7.7 °C 1026 hPa WNW 3.4 km/h 4.8 km/h 86% 0 mm 0 W/m2
02:39 9.4 °C 7.7 °C 1026 hPa WNW 0.8 km/h 6.4 km/h 86% 0 mm 0 W/m2
02:44 9.4 °C 7.7 °C 1026 hPa WNW 0.6 km/h 3.2 km/h 86% 0 mm 0 W/m2
02:49 9.5 °C 7.8 °C 1025.6 hPa WNW 2.3 km/h 6.4 km/h 86% 0 mm 0 W/m2
02:54 9.5 °C 7.8 °C 1025.6 hPa WNW 0.3 km/h 4.8 km/h 86% 0 mm 0 W/m2
02:59 9.5 °C 7.8 °C 1025.6 hPa WNW 1.9 km/h 4.8 km/h 86% 0 mm 0 W/m2
03:04 9.6 °C 7.8 °C 1025.6 hPa WNW 1.4 km/h 4.8 km/h 86% 0 mm 0 W/m2
03:09 9.6 °C 7.8 °C 1025.6 hPa Calm   1.6 km/h 86% 0 mm 0 W/m2
03:14 9.6 °C 7.9 °C 1025.6 hPa Calm     86% 0 mm 0 W/m2
03:19 9.6 °C 7.9 °C 1025.6 hPa Calm     86% 0 mm 0 W/m2
03:24 9.6 °C 7.8 °C 1025.6 hPa WNW 0.3 km/h 3.2 km/h 86% 0 mm 0 W/m2
03:29 9.6 °C 7.8 °C 1025.6 hPa WNW 1.9 km/h 3.2 km/h 86% 0 mm 0 W/m2
03:34 9.5 °C 7.8 °C 1025.6 hPa Calm   4.8 km/h 86% 0 mm 0 W/m2
03:39 9.5 °C 7.8 °C 1025.6 hPa WNW 1.4 km/h 4.8 km/h 86% 0 mm 0 W/m2
03:44 9.5 °C 7.8 °C 1025.6 hPa WNW 0.3 km/h 1.6 km/h 86% 0 mm 0 W/m2
03:49 9.6 °C 7.8 °C 1025.6 hPa Calm     86% 0 mm 0 W/m2
03:54 9.6 °C 7.9 °C 1025.6 hPa Calm     86% 0 mm 0 W/m2
03:59 9.6 °C 7.9 °C 1025.6 hPa Calm     86% 0 mm 0 W/m2
04:04 9.6 °C 7.9 °C 1025.6 hPa WNW 0.6 km/h 3.2 km/h 86% 0 mm 0 W/m2
04:09 9.6 °C 7.9 °C 1025.3 hPa WNW 3.4 km/h 4.8 km/h 86% 0 mm 0 W/m2
04:14 9.5 °C 7.8 °C 1025.3 hPa WNW 0.3 km/h 3.2 km/h 86% 0 mm 0 W/m2
04:19 9.4 °C 7.8 °C 1025.3 hPa WNW 1.6 km/h 4.8 km/h 86% 0 mm 0 W/m2
04:24 9.4 °C 7.7 °C 1025.3 hPa WNW 0.6 km/h 3.2 km/h 86% 0 mm 0 W/m2
04:29 9.4 °C 7.7 °C 1025.3 hPa Calm     86% 0 mm 0 W/m2
04:34 9.5 °C 7.8 °C 1025.3 hPa WNW 0.3 km/h 1.6 km/h 86% 0 mm 0 W/m2
04:39 9.5 °C 7.8 °C 1025.3 hPa WNW 0.3 km/h 3.2 km/h 86% 0 mm 0 W/m2
04:44 9.5 °C 7.8 °C 1025.3 hPa Calm     86% 0 mm 0 W/m2
04:49 9.4 °C 7.7 °C 1025.3 hPa Calm     86% 0 mm 0 W/m2
04:54 9.4 °C 7.7 °C 1025.3 hPa Calm     86% 0 mm 0 W/m2
04:58 9.4 °C 7.7 °C 1025.3 hPa Calm     86% 0 mm 0 W/m2
05:04 9.4 °C 7.7 °C 1025.3 hPa Calm     86.4% 0 mm 0 W/m2
05:09 9.4 °C 7.8 °C 1025.3 hPa Calm     87% 0 mm 0 W/m2
05:14 9.4 °C 7.8 °C 1024.9 hPa Calm     87% 0 mm 0 W/m2
05:19 9.4 °C 7.8 °C 1024.9 hPa Calm     87% 0 mm 0 W/m2
05:24 9.3 °C 7.7 °C 1024.9 hPa Calm     87% 0 mm 0 W/m2
05:29 9.3 °C 7.7 °C 1024.9 hPa Calm     87% 0 mm 0 W/m2
05:34 9.3 °C 7.7 °C 1024.9 hPa WNW 1 km/h 4.8 km/h 87% 0 mm 0 W/m2
05:39 9.3 °C 7.7 °C 1024.9 hPa WNW 2.9 km/h 8 km/h 87% 0 mm 0 W/m2
05:44 9.3 °C 7.7 °C 1024.9 hPa WNW 2.3 km/h 8 km/h 86.2% 0 mm 0 W/m2
05:49 9.4 °C 7.7 °C 1024.9 hPa WNW 1.4 km/h 4.8 km/h 86% 0 mm 0 W/m2
05:54 9.4 °C 7.5 °C 1024.9 hPa WNW 3.4 km/h 8 km/h 85% 0 mm 0 W/m2
05:59 9.6 °C 7.6 °C 1024.9 hPa WNW 5.1 km/h 11.3 km/h 84.8% 0 mm 0 W/m2
06:04 9.6 °C 7.5 °C 1024.9 hPa WNW 3.2 km/h 8 km/h 84% 0 mm 0 W/m2
06:09 9.7 °C 7.5 °C 1024.9 hPa WNW 5.3 km/h 9.7 km/h 83.6% 0 mm 0 W/m2
06:14 9.7 °C 7.4 °C 1024.9 hPa WNW 4.3 km/h 11.3 km/h 83% 0 mm 0 W/m2
06:19 9.7 °C 7.3 °C 1024.9 hPa WNW 3.4 km/h 11.3 km/h 82.2% 0 mm 0 W/m2
06:24 9.7 °C 7.3 °C 1024.9 hPa WNW 2.7 km/h 6.4 km/h 82% 0 mm 0 W/m2
06:29 9.8 °C 7.4 °C 1024.9 hPa WNW 2.7 km/h 8 km/h 82% 0 mm 0 W/m2
06:34 9.7 °C 7.3 °C 1024.9 hPa WNW 5.1 km/h 6.4 km/h 82% 0 mm 0 W/m2
06:39 9.8 °C 7.3 °C 1024.9 hPa WNW 5.1 km/h 9.7 km/h 82% 0 mm 0 W/m2
06:44 9.8 °C 7.2 °C 1024.9 hPa WNW 3.4 km/h 8 km/h 81% 0 mm 0 W/m2
06:49 9.8 °C 7.2 °C 1024.9 hPa WNW 4.7 km/h 8 km/h 81% 0 mm 0 W/m2
06:54 9.8 °C 7.2 °C 1024.9 hPa WNW 4 km/h 8 km/h 81% 0 mm 0 W/m2
06:59 9.8 °C 7.2 °C 1024.9 hPa WNW 2.6 km/h 6.4 km/h 81% 0 mm 0 W/m2
07:04 9.8 °C 7.2 °C 1025.3 hPa WNW 5.1 km/h 8 km/h 81% 0 mm 0 W/m2
07:09 9.8 °C 7.2 °C 1025.3 hPa WNW 2.4 km/h 8 km/h 81% 0 mm 0 W/m2
07:14 9.8 °C 7.2 °C 1024.9 hPa WNW 0.8 km/h 8 km/h 81% 0 mm 0 W/m2
07:19 9.8 °C 7.2 °C 1024.9 hPa WNW 0.8 km/h 3.2 km/h 81% 0 mm 0 W/m2
07:24 9.7 °C 7.2 °C 1024.9 hPa WNW 0.3 km/h 3.2 km/h 81% 0 mm 0 W/m2
07:29 9.7 °C 7.1 °C 1024.9 hPa Calm   3.2 km/h 81% 0 mm 0 W/m2
07:34 9.8 °C 7.2 °C 1025.3 hPa WNW 0.6 km/h 3.2 km/h 81.4% 0 mm 0 W/m2
07:39 9.7 °C 7.3 °C 1025.3 hPa WNW 1.1 km/h 3.2 km/h 82% 0 mm 0 W/m2
07:44 9.7 °C 7.3 °C 1025.3 hPa Calm   3.2 km/h 82% 0 mm 0 W/m2
07:49 9.7 °C 7.3 °C 1024.9 hPa WNW 0.8 km/h 3.2 km/h 82% 0 mm 0 W/m2
07:54 9.7 °C 7.3 °C 1024.9 hPa Calm   1.6 km/h 82.4% 0 mm 0 W/m2
07:59 9.6 °C 7.3 °C 1024.9 hPa WNW 3.2 km/h 4.8 km/h 83% 0 mm 5 W/m2
08:04 9.5 °C 7.2 °C 1024.9 hPa WNW 4 km/h 6.4 km/h 83% 0 mm 11 W/m2
08:09 9.4 °C 7.1 °C 1024.9 hPa WNW 1.4 km/h 4.8 km/h 83% 0 mm 12 W/m2
08:14 9.4 °C 7.1 °C 1024.9 hPa Calm   1.6 km/h 83% 0 mm 14 W/m2
08:19 9.4 °C 7.3 °C 1025.3 hPa WNW 0.6 km/h 3.2 km/h 84% 0 mm 16 W/m2
08:24 9.5 °C 7.4 °C 1025.3 hPa WNW 0.6 km/h 3.2 km/h 84% 0 mm 18 W/m2
08:29 9.5 °C 7.4 °C 1025.3 hPa Calm   1.6 km/h 84% 0 mm 23 W/m2
08:34 9.5 °C 7.4 °C 1025.3 hPa WNW 2.6 km/h 8 km/h 84% 0 mm 30 W/m2
08:39 9.6 °C 7.5 °C 1025.3 hPa WNW 3.5 km/h 6.4 km/h 84% 0 mm 30 W/m2
08:44 9.7 °C 7.4 °C 1025.3 hPa WNW 1.9 km/h 8 km/h 83.2% 0 mm 40 W/m2
08:49 9.8 °C 7.4 °C 1025.6 hPa WNW 1.4 km/h 4.8 km/h 82.4% 0 mm 44 W/m2
08:54 9.9 °C 7.4 °C 1025.6 hPa WNW 1.4 km/h 4.8 km/h 81.8% 0 mm 49 W/m2
08:59 9.9 °C 7.3 °C 1025.6 hPa WNW 2.1 km/h 4.8 km/h 81% 0 mm 49 W/m2
09:04 10.1 °C 7.4 °C 1025.6 hPa WNW 2.6 km/h 6.4 km/h 80.6% 0 mm 51 W/m2
09:09 10.2 °C 7.3 °C 1025.6 hPa WNW 2.1 km/h 4.8 km/h 80% 0 mm 53 W/m2
09:14 10.2 °C 7.4 °C 1025.6 hPa WNW 0.3 km/h 3.2 km/h 80% 0 mm 54 W/m2
09:19 10.3 °C 7.5 °C 1025.6 hPa WNW 0.8 km/h 3.2 km/h 80% 0 mm 60 W/m2
09:24 10.3 °C 7.3 °C 1025.6 hPa WNW 1.6 km/h 6.4 km/h 79.3% 0 mm 58 W/m2
09:29 10.4 °C 7.4 °C 1025.6 hPa WNW 1.4 km/h 4.8 km/h 79% 0 mm 63 W/m2
09:34 10.4 °C 7.4 °C 1025.6 hPa WNW 3.5 km/h 8 km/h 79% 0 mm 74 W/m2
09:39 10.4 °C 7.4 °C 1025.6 hPa WNW 2.4 km/h 8 km/h 79% 0 mm 84 W/m2
09:44 10.6 °C 7.6 °C 1025.6 hPa WNW 3.4 km/h 6.4 km/h 79% 0 mm 84 W/m2
09:49 10.6 °C 7.6 °C 1025.6 hPa WNW 3.4 km/h 8 km/h 79% 0 mm 84 W/m2
09:54 10.6 °C 7.5 °C 1025.6 hPa WNW 3.2 km/h 8 km/h 78.4% 0 mm 90 W/m2
09:59 10.7 °C 7.5 °C 1025.6 hPa NNE 3.9 km/h 6.4 km/h 78% 0 mm 90 W/m2
10:04 10.8 °C 7.6 °C 1025.6 hPa NE 4.7 km/h 11.3 km/h 78% 0 mm 104 W/m2
10:09 10.8 °C 7.6 °C 1025.6 hPa ENE 6.6 km/h 12.9 km/h 78% 0 mm 105 W/m2
10:14 10.8 °C 7.7 °C 1025.6 hPa ENE 4 km/h 11.3 km/h 78.8% 0 mm 90 W/m2
10:19 10.8 °C 7.8 °C 1025.6 hPa East 5.8 km/h 12.9 km/h 79% 0 mm 90 W/m2
10:24 10.8 °C 7.8 °C 1025.6 hPa East 2.7 km/h 12.9 km/h 79% 0 mm 95 W/m2
10:29 10.9 °C 7.9 °C 1025.6 hPa East 5.1 km/h 11.3 km/h 79% 0 mm 91 W/m2
10:34 10.9 °C 7.9 °C 1025.6 hPa East 4.3 km/h 8 km/h 79% 0 mm 104 W/m2
10:39 10.9 °C 7.9 °C 1025.6 hPa East 4.2 km/h 6.4 km/h 79% 0 mm 102 W/m2
10:44 10.9 °C 7.9 °C 1025.6 hPa East 3.2 km/h 4.8 km/h 79% 0 mm 102 W/m2
10:49 10.9 °C 8.1 °C 1025.6 hPa East 4.5 km/h 8 km/h 80% 0 mm 109 W/m2
10:54 10.9 °C 8.1 °C 1025.6 hPa East 4.5 km/h 12.9 km/h 80% 0 mm 125 W/m2
10:59 10.9 °C 8.2 °C 1025.6 hPa East 3.4 km/h 12.9 km/h 80% 0 mm 130 W/m2
11:04 11.2 °C 8.4 °C 1025.6 hPa East 4.2 km/h 8 km/h 80% 0 mm 144 W/m2
11:09 11.3 °C 8.3 °C 1025.6 hPa East 3.4 km/h 11.3 km/h 79% 0 mm 146 W/m2
11:14 11.3 °C 8.3 °C 1025.6 hPa East 5.8 km/h 11.3 km/h 79% 0 mm 151 W/m2
11:19 11.3 °C 8.3 °C 1025.6 hPa East 6.6 km/h 11.3 km/h 79% 0 mm 151 W/m2
11:24 11.4 °C 8.4 °C 1025.6 hPa East 4.5 km/h 8 km/h 79% 0 mm 155 W/m2
11:29 11.4 °C 8.4 °C 1025.6 hPa East 3.7 km/h 8 km/h 79% 0 mm 141 W/m2
11:34 11.5 °C 8.5 °C 1025.6 hPa East 4.5 km/h 11.3 km/h 79% 0 mm 135 W/m2
11:39 11.5 °C 8.3 °C 1025.6 hPa East 6.8 km/h 12.9 km/h 78% 0 mm 120 W/m2
11:44 11.6 °C 8.3 °C 1025.6 hPa East 5.3 km/h 12.9 km/h 78% 0 mm 114 W/m2
11:49 11.6 °C 8.4 °C 1025.6 hPa East 3.1 km/h 8 km/h 78% 0 mm 105 W/m2
11:54 11.7 °C 8.5 °C 1025.6 hPa East 3.2 km/h 6.4 km/h 78% 0 mm 104 W/m2
11:59 11.7 °C 8.4 °C 1025.6 hPa East 5.1 km/h 12.9 km/h 78% 0 mm 102 W/m2
12:04 11.7 °C 8.4 °C 1025.6 hPa East 3.1 km/h 8 km/h 78% 0 mm 98 W/m2
12:09 11.7 °C 8.5 °C 1025.6 hPa East 2.6 km/h 8 km/h 78% 0 mm 102 W/m2
12:14 11.8 °C 8.6 °C 1025.3 hPa East 2.7 km/h 6.4 km/h 77.8% 0 mm 114 W/m2
12:19 11.8 °C 8.4 °C 1025.3 hPa East 4 km/h 6.4 km/h 77% 0 mm 118 W/m2
12:24 11.9 °C 8.4 °C 1025.3 hPa East 2.6 km/h 11.3 km/h 76.4% 0 mm 137 W/m2
12:29 11.9 °C 8.3 °C 1025.3 hPa East 6.1 km/h 14.5 km/h 76% 0 mm 146 W/m2
12:34 11.9 °C 8.3 °C 1025.3 hPa ESE 6.3 km/h 14.5 km/h 76% 0 mm 148 W/m2
12:39 11.9 °C 8.3 °C 1025.3 hPa ESE 6.6 km/h 14.5 km/h 76% 0 mm 160 W/m2
12:44 11.9 °C 8.3 °C 1024.9 hPa ESE 7.4 km/h 14.5 km/h 76% 0 mm 179 W/m2
12:49 11.9 °C 8.3 °C 1024.9 hPa ESE 4.5 km/h 12.9 km/h 76% 0 mm 185 W/m2
12:54 12.1 °C 8.7 °C 1024.9 hPa ESE 4.7 km/h 8 km/h 77% 0 mm 172 W/m2
12:59 12.1 °C 8.6 °C 1024.9 hPa ESE 7.9 km/h 11.3 km/h 76.4% 0 mm 165 W/m2
13:04 12.1 °C 8.5 °C 1024.9 hPa ESE 6 km/h 12.9 km/h 76% 0 mm 160 W/m2
13:09 12.2 °C 8.7 °C 1024.9 hPa ESE 4 km/h 12.9 km/h 76% 0 mm 141 W/m2
13:14 12.3 °C 8.5 °C 1024.9 hPa ESE 3.5 km/h 8 km/h 75% 0 mm 128 W/m2
13:19 12.4 °C 8.6 °C 1024.6 hPa ESE 5.1 km/h 8 km/h 75% 0 mm 134 W/m2
13:24 12.4 °C 8.4 °C 1024.6 hPa ESE 4.2 km/h 11.3 km/h 74% 0 mm 137 W/m2
13:29 12.5 °C 8.5 °C 1024.6 hPa ESE 6.1 km/h 14.5 km/h 74% 0 mm 135 W/m2
13:34 12.4 °C 8.3 °C 1024.6 hPa SE 10 km/h 17.7 km/h 73.6% 0 mm 120 W/m2
13:39 12.4 °C 8.3 °C 1024.6 hPa SSE 7.1 km/h 16.1 km/h 73.2% 0 mm 125 W/m2
13:44 12.4 °C 8.4 °C 1024.6 hPa SSE 5.1 km/h 9.7 km/h 74% 0 mm 114 W/m2
13:49 12.4 °C 8.4 °C 1024.6 hPa SSE 7.7 km/h 17.7 km/h 74% 0 mm 109 W/m2
13:53 12.4 °C 8.4 °C 1024.6 hPa South 8.4 km/h 17.7 km/h 74% 0 mm 98 W/m2
13:59 12.4 °C 8.4 °C 1024.6 hPa South 7.7 km/h 12.9 km/h 74% 0 mm 113 W/m2
14:04 12.4 °C 8.4 °C 1024.3 hPa South 4.7 km/h 11.3 km/h 74% 0 mm 91 W/m2
14:09 12.4 °C 8.4 °C 1024.3 hPa South 5.6 km/h 16.1 km/h 74.2% 0 mm 114 W/m2
14:14 12.5 °C 8.7 °C 1024.3 hPa South 3.4 km/h 8 km/h 75% 0 mm 113 W/m2
14:19 12.4 °C 8.6 °C 1024.3 hPa South 7.9 km/h 16.1 km/h 75% 0 mm 120 W/m2
14:24 12.4 °C 8.6 °C 1024.3 hPa South 7.7 km/h 14.5 km/h 75% 0 mm 107 W/m2
14:29 12.4 °C 8.6 °C 1024.3 hPa South 5.6 km/h 16.1 km/h 75% 0 mm 97 W/m2
14:34 12.5 °C 8.8 °C 1023.9 hPa South 5.8 km/h 11.3 km/h 75.2% 0 mm 67 W/m2
14:39 12.5 °C 8.9 °C 1023.9 hPa South 6.3 km/h 12.9 km/h 76% 0 mm 63 W/m2
14:44 12.4 °C 8.7 °C 1023.9 hPa South 8.5 km/h 19.3 km/h 75.4% 0 mm 91 W/m2
14:49 12.4 °C 8.6 °C 1023.9 hPa South 7.7 km/h 14.5 km/h 75% 0 mm 114 W/m2
14:54 12.5 °C 8.7 °C 1023.9 hPa South 5.3 km/h 11.3 km/h 75% 0 mm 102 W/m2
14:59 12.6 °C 8.8 °C 1023.9 hPa South 3.9 km/h 12.9 km/h 75% 0 mm 209 W/m2
15:04 12.8 °C 8.8 °C 1023.6 hPa South 8.4 km/h 14.5 km/h 74.5% 0 mm 267 W/m2
15:09 12.8 °C 8.8 °C 1023.6 hPa SSW 5.8 km/h 14.5 km/h 74% 0 mm 202 W/m2
15:14 12.9 °C 8.9 °C 1023.6 hPa SSW 8.5 km/h 16.1 km/h 74% 0 mm 255 W/m2
15:19 13.1 °C 9.1 °C 1023.6 hPa SSW 6.8 km/h 17.7 km/h 74% 0 mm 311 W/m2
15:24 13.1 °C 9.1 °C 1023.6 hPa SSW 9 km/h 14.5 km/h 74% 0 mm 176 W/m2
15:29 13.1 °C 8.9 °C 1023.6 hPa SSW 9.7 km/h 16.1 km/h 73.4% 0 mm 144 W/m2
15:34 13 °C 8.6 °C 1023.6 hPa South 6.6 km/h 16.1 km/h 72% 0 mm 139 W/m2
15:39 12.9 °C 8.1 °C 1023.6 hPa South 8.2 km/h 22.5 km/h 70.4% 0 mm 113 W/m2
15:44 12.8 °C 7.9 °C 1023.6 hPa SSW 12.9 km/h 25.7 km/h 69.6% 0 mm 83 W/m2
15:49 12.8 °C 7.8 °C 1023.6 hPa SSW 11.1 km/h 22.5 km/h 69.2% 0 mm 67 W/m2
15:54 12.7 °C 8 °C 1023.6 hPa SW 8.2 km/h 22.5 km/h 70.6% 0 mm 102 W/m2
15:59 12.8 °C 8.2 °C 1023.6 hPa SSW 7.6 km/h 16.1 km/h 71% 0 mm 308 W/m2
16:04 13 °C 8.3 °C 1023.2 hPa SSW 9.7 km/h 17.7 km/h 71% 0 mm 258 W/m2
16:09 12.8 °C 8.2 °C 1023.2 hPa SSW 7.7 km/h 17.7 km/h 71% 0 mm 65 W/m2
16:14 12.7 °C 8.3 °C 1023.2 hPa SSW 6 km/h 12.9 km/h 72% 0 mm 58 W/m2
16:19 12.7 °C 8.3 °C 1023.2 hPa SSW 5.6 km/h 17.7 km/h 72% 0 mm 39 W/m2
16:24 12.6 °C 8.2 °C 1023.2 hPa SSW 7.6 km/h 16.1 km/h 72% 0 mm 35 W/m2
16:29 12.6 °C 8.3 °C 1023.2 hPa SSW 10.9 km/h 22.5 km/h 72.6% 0 mm 26 W/m2
16:34 12.4 °C 8.2 °C 1023.2 hPa SW 13.2 km/h 19.3 km/h 73% 0 mm 28 W/m2
16:39 12.4 °C 8.3 °C 1023.2 hPa SW 7.1 km/h 19.3 km/h 73.4% 0 mm 35 W/m2
16:44 12.3 °C 8.3 °C 1023.2 hPa SSW 7.2 km/h 16.1 km/h 74% 0 mm 35 W/m2
16:49 12.3 °C 8.2 °C 1023.2 hPa SSW 6.9 km/h 14.5 km/h 73.8% 0 mm 37 W/m2
16:54 12.3 °C 8.1 °C 1023.2 hPa South 4.7 km/h 11.3 km/h 73% 0 mm 37 W/m2
16:59 12.2 °C 8.1 °C 1023.2 hPa SSW 6.6 km/h 16.1 km/h 73% 0 mm 19 W/m2
17:04 12.2 °C 8 °C 1023.2 hPa SW 5.3 km/h 17.7 km/h 73% 0 mm 16 W/m2
17:09 12.2 °C 8 °C 1023.2 hPa South 8.4 km/h 17.7 km/h 73% 0 mm 12 W/m2
17:14 12.2 °C 7.9 °C 1023.2 hPa SSW 11.3 km/h 20.9 km/h 73% 0 mm 14 W/m2
17:19 12.1 °C 7.9 °C 1023.2 hPa SSW 5.1 km/h 19.3 km/h 73% 0 mm 14 W/m2
17:24 12.1 °C 7.9 °C 1023.2 hPa SSW 6 km/h 16.1 km/h 73% 0 mm 11 W/m2
17:29 12.1 °C 7.8 °C 1023.2 hPa SSW 7.1 km/h 14.5 km/h 73% 0 mm 5 W/m2
17:34 12 °C 7.8 °C 1023.2 hPa SSW 3.2 km/h 14.5 km/h 73% 0 mm 5 W/m2
17:39 12 °C 7.7 °C 1023.2 hPa SSW 9 km/h 12.9 km/h 72.6% 0 mm 0 W/m2
17:44 11.9 °C 7.7 °C 1023.2 hPa SSW 5.8 km/h 16.1 km/h 72.4% 0 mm 0 W/m2
17:49 11.9 °C 7.7 °C 1023.2 hPa SSW 5.5 km/h 11.3 km/h 73% 0 mm 0 W/m2
17:54 11.9 °C 7.7 °C 1023.2 hPa SSW 5.6 km/h 9.7 km/h 73% 0 mm 0 W/m2
17:59 11.9 °C 7.7 °C 1023.2 hPa SSW 2.7 km/h 8 km/h 73% 0 mm 0 W/m2
18:04 11.8 °C 7.7 °C 1022.9 hPa SSW 4 km/h 9.7 km/h 73.2% 0 mm 0 W/m2
18:09 11.8 °C 7.7 °C 1022.9 hPa SSW 4 km/h 8 km/h 73.6% 0 mm 0 W/m2
18:14 11.8 °C 7.8 °C 1022.9 hPa SSW 6.8 km/h 11.3 km/h 74% 0 mm 0 W/m2
18:19 11.7 °C 7.7 °C 1022.9 hPa SSW 4.7 km/h 11.3 km/h 74% 0 mm 0 W/m2
18:24 11.7 °C 7.7 °C 1022.9 hPa SSW 3.5 km/h 6.4 km/h 74% 0 mm 0 W/m2
18:29 11.7 °C 7.8 °C 1022.9 hPa SSW 2.4 km/h 8 km/h 74.2% 0 mm 0 W/m2
18:34 11.7 °C 7.9 °C 1022.9 hPa SSW 1.9 km/h 8 km/h 75% 0 mm 0 W/m2
18:39 11.7 °C 7.8 °C 1022.9 hPa SSW 4 km/h 8 km/h 75% 0 mm 0 W/m2
18:44 11.6 °C 7.8 °C 1022.9 hPa SSW 3.4 km/h 6.4 km/h 75% 0 mm 0 W/m2
18:49 11.6 °C 7.8 °C 1023.2 hPa SSW 2.7 km/h 8 km/h 75% 0 mm 0 W/m2
18:54 11.6 °C 7.8 °C 1023.2 hPa SSW 5 km/h 9.7 km/h 75% 0 mm 0 W/m2
18:59 11.6 °C 7.8 °C 1023.2 hPa SSW 3.5 km/h 14.5 km/h 75% 0 mm 0 W/m2
19:04 11.6 °C 7.8 °C 1023.2 hPa SSW 5.6 km/h 11.3 km/h 75% 0 mm 0 W/m2
19:09 11.6 °C 7.8 °C 1023.2 hPa SSW 6 km/h 12.9 km/h 74.8% 0 mm 0 W/m2
19:14 11.7 °C 7.7 °C 1023.2 hPa SSW 6 km/h 12.9 km/h 74% 0 mm 0 W/m2
19:19 11.7 °C 7.7 °C 1022.9 hPa SSW 7.2 km/h 11.3 km/h 74% 0 mm 0 W/m2
19:24 11.7 °C 7.7 °C 1022.9 hPa SSW 3.9 km/h 8 km/h 74% 0 mm 0 W/m2
19:29 11.8 °C 7.8 °C 1022.9 hPa SSW 4 km/h 8 km/h 74% 0 mm 0 W/m2
19:34 11.8 °C 7.6 °C 1022.9 hPa SSW 6 km/h 11.3 km/h 73% 0 mm 0 W/m2
19:39 11.8 °C 7.6 °C 1022.9 hPa SSW 7.2 km/h 12.9 km/h 73% 0 mm 0 W/m2
19:44 11.8 °C 7.6 °C 1022.9 hPa SSW 7.1 km/h 11.3 km/h 73% 0 mm 0 W/m2
19:49 11.7 °C 7.7 °C 1022.9 hPa SSW 4.3 km/h 11.3 km/h 73.8% 0 mm 0 W/m2
19:54 11.7 °C 7.7 °C 1022.9 hPa SSW 4.7 km/h 11.3 km/h 74% 0 mm 0 W/m2
19:59 11.7 °C 7.7 °C 1022.9 hPa SSW 3.2 km/h 9.7 km/h 74% 0 mm 0 W/m2
20:04 11.7 °C 7.7 °C 1022.6 hPa SSW 3.5 km/h 9.7 km/h 74% 0 mm 0 W/m2
20:09 11.7 °C 7.8 °C 1022.6 hPa SSW 5.6 km/h 11.3 km/h 74.8% 0 mm 0 W/m2
20:14 11.7 °C 7.9 °C 1022.6 hPa SSW 3.7 km/h 11.3 km/h 75% 0 mm 0 W/m2
20:19 11.7 °C 7.9 °C 1022.6 hPa SSW 5.3 km/h 11.3 km/h 75% 0 mm 0 W/m2
20:24 11.8 °C 8 °C 1022.6 hPa SSW 3.9 km/h 8 km/h 75% 0 mm 0 W/m2
20:29 11.8 °C 8 °C 1022.6 hPa SSW 4.3 km/h 8 km/h 75% 0 mm 0 W/m2
20:34 11.8 °C 8 °C 1022.6 hPa SSW 5.6 km/h 8 km/h 75% 0 mm 0 W/m2
20:39 11.8 °C 8 °C 1022.6 hPa SSW 5.6 km/h 9.7 km/h 75% 0 mm 0 W/m2
20:44 11.8 °C 8 °C 1022.6 hPa SSW 4.5 km/h 9.7 km/h 75% 0 mm 0 W/m2
20:49 11.7 °C 7.9 °C 1022.2 hPa SSW 4.8 km/h 11.3 km/h 75% 0 mm 0 W/m2
20:54 11.7 °C 7.9 °C 1022.2 hPa SSW 7.2 km/h 11.3 km/h 75% 0 mm 0 W/m2
20:59 11.7 °C 7.9 °C 1022.2 hPa SSW 6 km/h 11.3 km/h 75% 0 mm 0 W/m2
21:04 11.7 °C 7.9 °C 1022.2 hPa SSW 7.2 km/h 11.3 km/h 75% 0 mm 0 W/m2
21:09 11.7 °C 7.9 °C 1022.2 hPa SSW 6.6 km/h 11.3 km/h 75.2% 0 mm 0 W/m2
21:13 11.7 °C 8.1 °C 1022.2 hPa SSW 7.6 km/h 11.3 km/h 76% 0 mm 0 W/m2
21:19 11.6 °C 8 °C 1022.2 hPa SSW 4 km/h 11.3 km/h 76% 0 mm 0 W/m2
21:24 11.6 °C 8 °C 1022.2 hPa SSW 8.7 km/h 12.9 km/h 76% 0 mm 0 W/m2
21:29 11.6 °C 8.1 °C 1022.2 hPa SSW 7.4 km/h 12.9 km/h 76.6% 0 mm 0 W/m2
21:34 11.6 °C 8.2 °C 1022.2 hPa SSW 6.3 km/h 12.9 km/h 77% 0 mm 0 W/m2
21:39 11.6 °C 8.2 °C 1021.9 hPa SSW 5 km/h 8 km/h 77% 0 mm 0 W/m2
21:44 11.6 °C 8.2 °C 1021.9 hPa SSW 6.4 km/h 11.3 km/h 77% 0 mm 0 W/m2
21:49 11.6 °C 8.3 °C 1021.9 hPa SSW 5 km/h 9.7 km/h 77.8% 0 mm 0 W/m2
21:54 11.5 °C 8.3 °C 1021.9 hPa SSW 4.7 km/h 9.7 km/h 78% 0 mm 0 W/m2
21:59 11.4 °C 8.2 °C 1021.9 hPa SSW 6.3 km/h 11.3 km/h 78% 0 mm 0 W/m2
22:04 11.4 °C 8.2 °C 1021.9 hPa SSW 5.3 km/h 11.3 km/h 78% 0 mm 0 W/m2
22:09 11.4 °C 8.2 °C 1021.9 hPa SSW 4.5 km/h 8 km/h 78% 0 mm 0 W/m2
22:14 11.4 °C 8.3 °C 1021.6 hPa SSW 4.8 km/h 9.7 km/h 78.2% 0 mm 0 W/m2
22:19 11.4 °C 8.4 °C 1021.6 hPa SSW 5.1 km/h 8 km/h 79% 0 mm 0 W/m2
22:24 11.4 °C 8.4 °C 1021.6 hPa SSW 6.9 km/h 12.9 km/h 79% 0 mm 0 W/m2
22:29 11.4 °C 8.4 °C 1021.6 hPa SSW 6.3 km/h 11.3 km/h 79% 0 mm 0 W/m2
22:34 11.4 °C 8.4 °C 1021.6 hPa SSW 6.1 km/h 11.3 km/h 79% 0 mm 0 W/m2
22:39 11.4 °C 8.3 °C 1021.6 hPa SSW 5.8 km/h 12.9 km/h 78.2% 0 mm 0 W/m2
22:44 11.4 °C 8.2 °C 1021.6 hPa SSW 6 km/h 11.3 km/h 78% 0 mm 0 W/m2
22:49 11.4 °C 8.2 °C 1021.2 hPa SSW 3.2 km/h 9.7 km/h 78% 0 mm 0 W/m2
22:53 11.4 °C 8.2 °C 1021.2 hPa SSW 6 km/h 8 km/h 78% 0 mm 0 W/m2
22:59 11.4 °C 8.2 °C 1021.6 hPa SSW 3.4 km/h 8 km/h 78% 0 mm 0 W/m2
23:04 11.4 °C 8.2 °C 1021.6 hPa SSW 4.7 km/h 8 km/h 78% 0 mm 0 W/m2
23:09 11.4 °C 8.2 °C 1021.6 hPa SSW 6 km/h 9.7 km/h 78% 0 mm 0 W/m2
23:14 11.5 °C 8.3 °C 1021.6 hPa SSW 4 km/h 11.3 km/h 78% 0 mm 0 W/m2
23:19 11.5 °C 8.3 °C 1021.6 hPa SSW 4.7 km/h 11.3 km/h 78% 0 mm 0 W/m2
23:24 11.5 °C 8.2 °C 1021.2 hPa SSW 4.5 km/h 8 km/h 77.6% 0 mm 0 W/m2
23:29 11.5 °C 8.1 °C 1021.2 hPa SSW 6 km/h 11.3 km/h 77% 0 mm 0 W/m2
23:34 11.6 °C 8.2 °C 1021.2 hPa SSW 7.7 km/h 11.3 km/h 77% 0 mm 0 W/m2
23:39 11.6 °C 8.2 °C 1021.2 hPa SSW 7.2 km/h 11.3 km/h 77% 0 mm 0 W/m2
23:44 11.6 °C 8.2 °C 1021.2 hPa SSW 7.6 km/h 11.3 km/h 77% 0 mm 0 W/m2
23:49 11.6 °C 8.2 °C 1021.2 hPa SSW 4 km/h 9.7 km/h 77% 0 mm 0 W/m2
23:54 11.6 °C 8.2 °C 1021.2 hPa SSW 5.8 km/h 9.7 km/h 77% 0 mm 0 W/m2
23:59 11.6 °C 8.2 °C 1021.2 hPa SSW 5 km/h 11.3 km/h 76.8% 0 mm 0 W/m2
Bath Spa Weather
Compliments of Weather Underground - 2 mb